sensor_id;sensor_type;location;lat;lon;timestamp;temperature;humidity
35129;DHT22;21301;43.626;10.580;2023-05-20T00:00:12;15.60;99.90
35129;DHT22;21301;43.626;10.580;2023-05-20T00:02:37;15.50;99.90
35129;DHT22;21301;43.626;10.580;2023-05-20T00:05:03;15.50;99.90
35129;DHT22;21301;43.626;10.580;2023-05-20T00:07:30;15.50;99.90
35129;DHT22;21301;43.626;10.580;2023-05-20T00:09:56;15.50;99.90
35129;DHT22;21301;43.626;10.580;2023-05-20T00:12:22;15.50;99.90
35129;DHT22;21301;43.626;10.580;2023-05-20T00:14:48;15.50;99.90
35129;DHT22;21301;43.626;10.580;2023-05-20T00:17:13;15.50;99.90
35129;DHT22;21301;43.626;10.580;2023-05-20T00:19:39;15.40;99.90
35129;DHT22;21301;43.626;10.580;2023-05-20T00:22:05;15.40;99.90
35129;DHT22;21301;43.626;10.580;2023-05-20T00:24:31;15.40;99.90
35129;DHT22;21301;43.626;10.580;2023-05-20T00:26:56;15.40;99.90
35129;DHT22;21301;43.626;10.580;2023-05-20T00:29:22;15.40;99.90
35129;DHT22;21301;43.626;10.580;2023-05-20T00:31:48;15.30;99.90
35129;DHT22;21301;43.626;10.580;2023-05-20T00:34:14;15.30;99.90
35129;DHT22;21301;43.626;10.580;2023-05-20T00:36:40;15.30;99.90
35129;DHT22;21301;43.626;10.580;2023-05-20T00:39:07;15.30;99.90
35129;DHT22;21301;43.626;10.580;2023-05-20T00:41:33;15.30;99.90
35129;DHT22;21301;43.626;10.580;2023-05-20T00:43:59;15.20;99.90
35129;DHT22;21301;43.626;10.580;2023-05-20T00:46:25;15.20;99.90
35129;DHT22;21301;43.626;10.580;2023-05-20T00:48:52;15.20;99.90
35129;DHT22;21301;43.626;10.580;2023-05-20T00:51:19;15.10;99.90
35129;DHT22;21301;43.626;10.580;2023-05-20T00:53:45;15.10;99.90
35129;DHT22;21301;43.626;10.580;2023-05-20T00:56:11;15.10;99.90
35129;DHT22;21301;43.626;10.580;2023-05-20T00:58:37;15.10;99.90
35129;DHT22;21301;43.626;10.580;2023-05-20T01:01:04;15.10;99.90
35129;DHT22;21301;43.626;10.580;2023-05-20T01:03:31;15.00;99.90
35129;DHT22;21301;43.626;10.580;2023-05-20T01:05:57;15.00;99.90
35129;DHT22;21301;43.626;10.580;2023-05-20T01:08:24;15.00;99.90
35129;DHT22;21301;43.626;10.580;2023-05-20T01:13:29;15.10;99.90
35129;DHT22;21301;43.626;10.580;2023-05-20T01:15:58;15.10;99.90
35129;DHT22;21301;43.626;10.580;2023-05-20T01:18:25;15.00;99.90
35129;DHT22;21301;43.626;10.580;2023-05-20T01:20:57;15.10;99.90
35129;DHT22;21301;43.626;10.580;2023-05-20T01:23:39;15.10;99.90
35129;DHT22;21301;43.626;10.580;2023-05-20T01:26:08;15.10;99.90
35129;DHT22;21301;43.626;10.580;2023-05-20T01:28:36;15.10;99.90
35129;DHT22;21301;43.626;10.580;2023-05-20T01:31:05;15.10;99.90
35129;DHT22;21301;43.626;10.580;2023-05-20T01:33:34;15.10;99.90
35129;DHT22;21301;43.626;10.580;2023-05-20T01:36:01;15.10;99.90
35129;DHT22;21301;43.626;10.580;2023-05-20T01:38:27;15.10;99.90
35129;DHT22;21301;43.626;10.580;2023-05-20T01:40:54;15.10;99.90
35129;DHT22;21301;43.626;10.580;2023-05-20T01:43:22;15.10;99.90
35129;DHT22;21301;43.626;10.580;2023-05-20T01:45:49;15.20;99.90
35129;DHT22;21301;43.626;10.580;2023-05-20T01:48:15;15.10;99.90
35129;DHT22;21301;43.626;10.580;2023-05-20T01:50:41;15.10;99.90
35129;DHT22;21301;43.626;10.580;2023-05-20T01:53:09;15.20;99.90
35129;DHT22;21301;43.626;10.580;2023-05-20T01:55:35;15.10;99.90
35129;DHT22;21301;43.626;10.580;2023-05-20T01:58:01;15.10;99.90
35129;DHT22;21301;43.626;10.580;2023-05-20T02:00:27;15.00;99.90
35129;DHT22;21301;43.626;10.580;2023-05-20T02:02:53;15.10;99.90
35129;DHT22;21301;43.626;10.580;2023-05-20T02:05:19;15.00;99.90
35129;DHT22;21301;43.626;10.580;2023-05-20T02:07:44;15.10;99.90
35129;DHT22;21301;43.626;10.580;2023-05-20T02:10:10;15.00;99.90
35129;DHT22;21301;43.626;10.580;2023-05-20T02:12:36;15.00;99.90
35129;DHT22;21301;43.626;10.580;2023-05-20T02:15:03;15.00;99.90
35129;DHT22;21301;43.626;10.580;2023-05-20T02:17:30;15.00;99.90
35129;DHT22;21301;43.626;10.580;2023-05-20T02:19:56;15.00;99.90
35129;DHT22;21301;43.626;10.580;2023-05-20T02:22:22;15.00;99.90
35129;DHT22;21301;43.626;10.580;2023-05-20T02:24:47;15.00;99.90
35129;DHT22;21301;43.626;10.580;2023-05-20T02:27:14;15.00;99.90
35129;DHT22;21301;43.626;10.580;2023-05-20T02:29:42;15.00;99.90
35129;DHT22;21301;43.626;10.580;2023-05-20T02:32:10;15.00;99.90
35129;DHT22;21301;43.626;10.580;2023-05-20T02:34:36;15.00;99.90
35129;DHT22;21301;43.626;10.580;2023-05-20T02:37:02;15.00;99.90
35129;DHT22;21301;43.626;10.580;2023-05-20T02:39:28;15.00;99.90
35129;DHT22;21301;43.626;10.580;2023-05-20T02:41:54;14.90;99.90
35129;DHT22;21301;43.626;10.580;2023-05-20T02:44:20;15.00;99.90
35129;DHT22;21301;43.626;10.580;2023-05-20T02:46:47;15.00;99.90
35129;DHT22;21301;43.626;10.580;2023-05-20T02:49:13;14.90;99.90
35129;DHT22;21301;43.626;10.580;2023-05-20T02:51:39;15.00;99.90
35129;DHT22;21301;43.626;10.580;2023-05-20T02:54:05;15.00;99.90
35129;DHT22;21301;43.626;10.580;2023-05-20T02:56:31;15.00;99.90
35129;DHT22;21301;43.626;10.580;2023-05-20T02:58:59;15.00;99.90
35129;DHT22;21301;43.626;10.580;2023-05-20T03:04:56;14.90;99.90
35129;DHT22;21301;43.626;10.580;2023-05-20T03:07:22;14.90;99.90
35129;DHT22;21301;43.626;10.580;2023-05-20T03:09:48;14.90;99.90
35129;DHT22;21301;43.626;10.580;2023-05-20T03:12:14;14.90;99.90
35129;DHT22;21301;43.626;10.580;2023-05-20T03:14:39;14.90;99.90
35129;DHT22;21301;43.626;10.580;2023-05-20T03:17:08;14.90;99.90
35129;DHT22;21301;43.626;10.580;2023-05-20T03:19:34;14.90;99.90
35129;DHT22;21301;43.626;10.580;2023-05-20T03:22:00;14.90;99.90
35129;DHT22;21301;43.626;10.580;2023-05-20T03:24:27;14.90;99.90
35129;DHT22;21301;43.626;10.580;2023-05-20T03:26:53;14.90;99.90
35129;DHT22;21301;43.626;10.580;2023-05-20T03:29:19;15.00;99.90
35129;DHT22;21301;43.626;10.580;2023-05-20T03:31:45;14.90;99.90
35129;DHT22;21301;43.626;10.580;2023-05-20T03:34:11;14.90;99.90
35129;DHT22;21301;43.626;10.580;2023-05-20T03:36:38;14.90;99.90
35129;DHT22;21301;43.626;10.580;2023-05-20T03:39:03;14.90;99.90
35129;DHT22;21301;43.626;10.580;2023-05-20T03:41:31;14.90;99.90
35129;DHT22;21301;43.626;10.580;2023-05-20T03:43:57;14.90;99.90
35129;DHT22;21301;43.626;10.580;2023-05-20T03:46:24;14.90;99.90
35129;DHT22;21301;43.626;10.580;2023-05-20T03:48:50;14.90;99.90
35129;DHT22;21301;43.626;10.580;2023-05-20T03:51:15;14.90;99.90
35129;DHT22;21301;43.626;10.580;2023-05-20T03:53:42;14.80;99.90
35129;DHT22;21301;43.626;10.580;2023-05-20T03:56:07;14.80;99.90
35129;DHT22;21301;43.626;10.580;2023-05-20T03:58:36;14.90;99.90
35129;DHT22;21301;43.626;10.580;2023-05-20T04:01:04;14.80;99.90
35129;DHT22;21301;43.626;10.580;2023-05-20T04:03:30;14.80;99.90
35129;DHT22;21301;43.626;10.580;2023-05-20T04:05:56;14.80;99.90
35129;DHT22;21301;43.626;10.580;2023-05-20T04:08:22;14.80;99.90
35129;DHT22;21301;43.626;10.580;2023-05-20T04:10:54;14.80;99.90
35129;DHT22;21301;43.626;10.580;2023-05-20T04:13:20;14.90;99.90
35129;DHT22;21301;43.626;10.580;2023-05-20T04:15:47;14.90;99.90
35129;DHT22;21301;43.626;10.580;2023-05-20T04:18:13;14.80;99.90
35129;DHT22;21301;43.626;10.580;2023-05-20T04:20:40;14.80;99.90
35129;DHT22;21301;43.626;10.580;2023-05-20T04:23:06;14.80;99.90
35129;DHT22;21301;43.626;10.580;2023-05-20T04:25:32;14.80;99.90
35129;DHT22;21301;43.626;10.580;2023-05-20T04:27:59;14.80;99.90
35129;DHT22;21301;43.626;10.580;2023-05-20T04:30:25;14.80;99.90
35129;DHT22;21301;43.626;10.580;2023-05-20T04:32:51;14.80;99.90
35129;DHT22;21301;43.626;10.580;2023-05-20T04:35:18;14.80;99.90
35129;DHT22;21301;43.626;10.580;2023-05-20T04:37:46;14.80;99.90
35129;DHT22;21301;43.626;10.580;2023-05-20T04:40:13;14.80;99.90
35129;DHT22;21301;43.626;10.580;2023-05-20T04:42:40;14.80;99.90
35129;DHT22;21301;43.626;10.580;2023-05-20T04:45:06;14.90;99.90
35129;DHT22;21301;43.626;10.580;2023-05-20T04:47:34;14.90;99.90
35129;DHT22;21301;43.626;10.580;2023-05-20T04:50:09;14.90;99.90
35129;DHT22;21301;43.626;10.580;2023-05-20T04:52:36;14.90;99.90
35129;DHT22;21301;43.626;10.580;2023-05-20T04:55:08;14.90;99.90
35129;DHT22;21301;43.626;10.580;2023-05-20T04:57:38;14.90;99.90
35129;DHT22;21301;43.626;10.580;2023-05-20T05:00:10;14.90;99.90
35129;DHT22;21301;43.626;10.580;2023-05-20T05:02:38;14.90;99.90
35129;DHT22;21301;43.626;10.580;2023-05-20T05:05:04;14.90;99.90
35129;DHT22;21301;43.626;10.580;2023-05-20T05:07:30;14.90;99.90
35129;DHT22;21301;43.626;10.580;2023-05-20T05:09:56;14.90;99.90
35129;DHT22;21301;43.626;10.580;2023-05-20T05:12:22;14.90;99.90
35129;DHT22;21301;43.626;10.580;2023-05-20T05:14:48;14.90;99.90
35129;DHT22;21301;43.626;10.580;2023-05-20T05:17:14;14.90;99.90
35129;DHT22;21301;43.626;10.580;2023-05-20T05:19:40;14.90;99.90
35129;DHT22;21301;43.626;10.580;2023-05-20T05:22:06;15.00;99.90
35129;DHT22;21301;43.626;10.580;2023-05-20T05:24:33;15.00;99.90
35129;DHT22;21301;43.626;10.580;2023-05-20T05:26:59;14.90;99.90
35129;DHT22;21301;43.626;10.580;2023-05-20T05:29:25;15.00;99.90
35129;DHT22;21301;43.626;10.580;2023-05-20T05:31:51;15.00;99.90
35129;DHT22;21301;43.626;10.580;2023-05-20T05:34:17;15.00;99.90
35129;DHT22;21301;43.626;10.580;2023-05-20T05:36:43;15.00;99.90
35129;DHT22;21301;43.626;10.580;2023-05-20T05:39:09;15.00;99.90
35129;DHT22;21301;43.626;10.580;2023-05-20T05:41:38;15.00;99.90
35129;DHT22;21301;43.626;10.580;2023-05-20T05:44:04;15.00;99.90
35129;DHT22;21301;43.626;10.580;2023-05-20T05:46:30;15.00;99.90
35129;DHT22;21301;43.626;10.580;2023-05-20T05:48:57;15.10;99.90
35129;DHT22;21301;43.626;10.580;2023-05-20T05:51:23;15.10;99.90
35129;DHT22;21301;43.626;10.580;2023-05-20T05:53:52;15.10;99.90
35129;DHT22;21301;43.626;10.580;2023-05-20T05:56:18;15.10;99.90
35129;DHT22;21301;43.626;10.580;2023-05-20T05:58:44;15.10;99.90
35129;DHT22;21301;43.626;10.580;2023-05-20T06:01:13;15.10;99.90
35129;DHT22;21301;43.626;10.580;2023-05-20T06:03:39;15.10;99.90
35129;DHT22;21301;43.626;10.580;2023-05-20T06:06:05;15.20;99.90
35129;DHT22;21301;43.626;10.580;2023-05-20T06:08:32;15.20;99.90
35129;DHT22;21301;43.626;10.580;2023-05-20T06:10:58;15.20;99.90
35129;DHT22;21301;43.626;10.580;2023-05-20T06:13:24;15.20;99.90
35129;DHT22;21301;43.626;10.580;2023-05-20T06:15:49;15.20;99.90
35129;DHT22;21301;43.626;10.580;2023-05-20T06:18:16;15.20;99.90
35129;DHT22;21301;43.626;10.580;2023-05-20T06:20:42;15.30;99.90
35129;DHT22;21301;43.626;10.580;2023-05-20T06:23:08;15.30;99.90
35129;DHT22;21301;43.626;10.580;2023-05-20T06:25:42;15.30;99.90
35129;DHT22;21301;43.626;10.580;2023-05-20T06:28:07;15.30;99.90
35129;DHT22;21301;43.626;10.580;2023-05-20T06:30:34;15.30;99.90
35129;DHT22;21301;43.626;10.580;2023-05-20T06:33:00;15.30;99.90
35129;DHT22;21301;43.626;10.580;2023-05-20T06:35:29;15.30;99.90
35129;DHT22;21301;43.626;10.580;2023-05-20T06:37:55;15.40;99.90
35129;DHT22;21301;43.626;10.580;2023-05-20T06:40:21;15.40;99.90
35129;DHT22;21301;43.626;10.580;2023-05-20T06:42:48;15.50;99.90
35129;DHT22;21301;43.626;10.580;2023-05-20T06:45:13;15.40;99.90
35129;DHT22;21301;43.626;10.580;2023-05-20T06:47:42;15.50;99.90
35129;DHT22;21301;43.626;10.580;2023-05-20T06:50:09;15.50;99.90
35129;DHT22;21301;43.626;10.580;2023-05-20T06:52:35;15.50;99.90
35129;DHT22;21301;43.626;10.580;2023-05-20T06:55:01;15.60;99.90
35129;DHT22;21301;43.626;10.580;2023-05-20T06:57:28;15.60;99.90
35129;DHT22;21301;43.626;10.580;2023-05-20T06:59:55;15.60;99.90
35129;DHT22;21301;43.626;10.580;2023-05-20T07:02:21;15.60;99.90
35129;DHT22;21301;43.626;10.580;2023-05-20T07:04:48;15.60;99.90
35129;DHT22;21301;43.626;10.580;2023-05-20T07:07:13;15.70;99.90
35129;DHT22;21301;43.626;10.580;2023-05-20T07:09:40;15.70;99.90
35129;DHT22;21301;43.626;10.580;2023-05-20T07:12:06;15.70;99.90
35129;DHT22;21301;43.626;10.580;2023-05-20T07:14:32;15.80;99.90
35129;DHT22;21301;43.626;10.580;2023-05-20T07:16:59;15.80;99.90
35129;DHT22;21301;43.626;10.580;2023-05-20T07:19:26;15.80;99.90
35129;DHT22;21301;43.626;10.580;2023-05-20T07:21:52;15.80;99.90
35129;DHT22;21301;43.626;10.580;2023-05-20T07:24:37;15.80;99.90
35129;DHT22;21301;43.626;10.580;2023-05-20T07:27:04;15.80;99.90
35129;DHT22;21301;43.626;10.580;2023-05-20T07:29:29;15.80;99.90
35129;DHT22;21301;43.626;10.580;2023-05-20T07:31:56;15.90;99.90
35129;DHT22;21301;43.626;10.580;2023-05-20T07:34:21;15.90;99.90
35129;DHT22;21301;43.626;10.580;2023-05-20T07:36:48;16.00;99.90
35129;DHT22;21301;43.626;10.580;2023-05-20T07:39:15;16.10;99.90
35129;DHT22;21301;43.626;10.580;2023-05-20T07:41:41;16.10;99.90
35129;DHT22;21301;43.626;10.580;2023-05-20T07:44:07;16.10;99.90
35129;DHT22;21301;43.626;10.580;2023-05-20T07:46:36;16.10;99.90
35129;DHT22;21301;43.626;10.580;2023-05-20T07:49:04;16.20;99.90
35129;DHT22;21301;43.626;10.580;2023-05-20T07:51:30;16.20;99.90
35129;DHT22;21301;43.626;10.580;2023-05-20T07:53:56;16.30;99.90
35129;DHT22;21301;43.626;10.580;2023-05-20T07:56:22;16.30;99.90
35129;DHT22;21301;43.626;10.580;2023-05-20T07:58:55;16.40;99.90
35129;DHT22;21301;43.626;10.580;2023-05-20T08:01:27;16.50;99.90
35129;DHT22;21301;43.626;10.580;2023-05-20T08:03:54;16.60;99.90
35129;DHT22;21301;43.626;10.580;2023-05-20T08:06:22;16.70;99.90
35129;DHT22;21301;43.626;10.580;2023-05-20T08:08:51;16.90;99.90
35129;DHT22;21301;43.626;10.580;2023-05-20T08:11:27;16.90;99.90
35129;DHT22;21301;43.626;10.580;2023-05-20T08:13:53;16.90;99.90
35129;DHT22;21301;43.626;10.580;2023-05-20T08:16:20;17.00;99.90
35129;DHT22;21301;43.626;10.580;2023-05-20T08:18:46;17.10;99.90
35129;DHT22;21301;43.626;10.580;2023-05-20T08:21:12;17.10;99.90
35129;DHT22;21301;43.626;10.580;2023-05-20T08:23:39;17.20;99.90
35129;DHT22;21301;43.626;10.580;2023-05-20T08:26:05;17.30;99.90
35129;DHT22;21301;43.626;10.580;2023-05-20T08:28:32;17.30;99.90
35129;DHT22;21301;43.626;10.580;2023-05-20T08:31:00;17.40;99.90
35129;DHT22;21301;43.626;10.580;2023-05-20T08:33:27;17.40;99.90
35129;DHT22;21301;43.626;10.580;2023-05-20T08:35:53;17.40;99.90
35129;DHT22;21301;43.626;10.580;2023-05-20T08:38:19;17.50;99.90
35129;DHT22;21301;43.626;10.580;2023-05-20T08:40:45;17.70;99.90
35129;DHT22;21301;43.626;10.580;2023-05-20T08:43:16;17.70;99.90
35129;DHT22;21301;43.626;10.580;2023-05-20T08:45:41;17.80;99.90
35129;DHT22;21301;43.626;10.580;2023-05-20T08:48:11;17.80;99.90
35129;DHT22;21301;43.626;10.580;2023-05-20T08:50:38;17.90;99.90
35129;DHT22;21301;43.626;10.580;2023-05-20T08:53:04;18.10;99.90
35129;DHT22;21301;43.626;10.580;2023-05-20T08:55:41;18.20;99.90
35129;DHT22;21301;43.626;10.580;2023-05-20T08:58:07;18.30;99.90
35129;DHT22;21301;43.626;10.580;2023-05-20T09:00:33;18.40;99.90
35129;DHT22;21301;43.626;10.580;2023-05-20T09:02:59;18.50;99.90
35129;DHT22;21301;43.626;10.580;2023-05-20T09:05:25;18.70;99.90
35129;DHT22;21301;43.626;10.580;2023-05-20T09:07:52;18.70;99.90
35129;DHT22;21301;43.626;10.580;2023-05-20T09:10:19;18.90;99.90
35129;DHT22;21301;43.626;10.580;2023-05-20T09:12:45;19.00;99.90
35129;DHT22;21301;43.626;10.580;2023-05-20T09:15:11;19.10;99.90
35129;DHT22;21301;43.626;10.580;2023-05-20T09:17:37;19.00;99.90
35129;DHT22;21301;43.626;10.580;2023-05-20T09:20:10;18.90;99.90
35129;DHT22;21301;43.626;10.580;2023-05-20T09:22:37;18.80;99.90
35129;DHT22;21301;43.626;10.580;2023-05-20T09:25:04;18.70;99.90
35129;DHT22;21301;43.626;10.580;2023-05-20T09:27:31;18.80;99.90
35129;DHT22;21301;43.626;10.580;2023-05-20T09:29:57;18.80;99.90
35129;DHT22;21301;43.626;10.580;2023-05-20T09:32:22;18.90;99.90
35129;DHT22;21301;43.626;10.580;2023-05-20T09:34:51;18.90;99.90
35129;DHT22;21301;43.626;10.580;2023-05-20T09:37:17;19.00;99.90
35129;DHT22;21301;43.626;10.580;2023-05-20T09:39:56;19.00;99.90
35129;DHT22;21301;43.626;10.580;2023-05-20T09:42:40;19.20;99.90
35129;DHT22;21301;43.626;10.580;2023-05-20T09:45:07;19.30;99.90
35129;DHT22;21301;43.626;10.580;2023-05-20T09:47:37;19.20;99.90
35129;DHT22;21301;43.626;10.580;2023-05-20T09:50:06;19.20;99.90
35129;DHT22;21301;43.626;10.580;2023-05-20T09:52:34;19.30;99.90
35129;DHT22;21301;43.626;10.580;2023-05-20T09:55:02;19.50;99.90
35129;DHT22;21301;43.626;10.580;2023-05-20T09:57:33;19.60;99.90
35129;DHT22;21301;43.626;10.580;2023-05-20T09:59:58;19.70;99.90
35129;DHT22;21301;43.626;10.580;2023-05-20T10:02:26;19.80;99.90
35129;DHT22;21301;43.626;10.580;2023-05-20T10:04:53;19.90;99.90
35129;DHT22;21301;43.626;10.580;2023-05-20T10:19:03;20.90;99.90
35129;DHT22;21301;43.626;10.580;2023-05-20T10:21:31;20.80;99.90
35129;DHT22;21301;43.626;10.580;2023-05-20T10:24:08;20.70;99.90
35129;DHT22;21301;43.626;10.580;2023-05-20T10:26:39;20.60;99.90
35129;DHT22;21301;43.626;10.580;2023-05-20T10:29:23;20.50;99.90
35129;DHT22;21301;43.626;10.580;2023-05-20T10:31:50;20.60;99.90
35129;DHT22;21301;43.626;10.580;2023-05-20T10:34:18;20.70;99.90
35129;DHT22;21301;43.626;10.580;2023-05-20T10:36:46;20.50;99.90
35129;DHT22;21301;43.626;10.580;2023-05-20T10:39:16;20.40;99.90
35129;DHT22;21301;43.626;10.580;2023-05-20T10:41:42;20.40;99.90
35129;DHT22;21301;43.626;10.580;2023-05-20T10:44:08;20.30;99.90
35129;DHT22;21301;43.626;10.580;2023-05-20T10:46:34;20.10;99.90
35129;DHT22;21301;43.626;10.580;2023-05-20T10:49:03;20.10;99.90
35129;DHT22;21301;43.626;10.580;2023-05-20T10:51:30;20.10;99.90
35129;DHT22;21301;43.626;10.580;2023-05-20T10:54:00;20.00;99.90
35129;DHT22;21301;43.626;10.580;2023-05-20T10:56:26;20.10;99.90
35129;DHT22;21301;43.626;10.580;2023-05-20T10:58:53;20.00;99.90
35129;DHT22;21301;43.626;10.580;2023-05-20T11:01:23;20.00;99.90
35129;DHT22;21301;43.626;10.580;2023-05-20T11:03:50;20.00;99.90
35129;DHT22;21301;43.626;10.580;2023-05-20T11:06:17;19.90;99.90
35129;DHT22;21301;43.626;10.580;2023-05-20T11:08:44;19.90;99.90
35129;DHT22;21301;43.626;10.580;2023-05-20T11:11:11;19.90;99.90
35129;DHT22;21301;43.626;10.580;2023-05-20T11:13:37;19.80;99.90
35129;DHT22;21301;43.626;10.580;2023-05-20T11:16:04;19.80;99.90
35129;DHT22;21301;43.626;10.580;2023-05-20T11:18:30;19.80;99.90
35129;DHT22;21301;43.626;10.580;2023-05-20T11:21:00;19.80;99.90
35129;DHT22;21301;43.626;10.580;2023-05-20T11:23:27;19.90;99.90
35129;DHT22;21301;43.626;10.580;2023-05-20T11:25:54;20.10;99.90
35129;DHT22;21301;43.626;10.580;2023-05-20T11:28:22;20.40;99.90
35129;DHT22;21301;43.626;10.580;2023-05-20T11:30:49;20.60;99.90
35129;DHT22;21301;43.626;10.580;2023-05-20T11:33:16;20.70;99.90
35129;DHT22;21301;43.626;10.580;2023-05-20T11:35:51;20.90;99.90
35129;DHT22;21301;43.626;10.580;2023-05-20T11:38:18;20.70;99.90
35129;DHT22;21301;43.626;10.580;2023-05-20T11:40:54;20.70;99.90
35129;DHT22;21301;43.626;10.580;2023-05-20T11:43:21;20.70;99.90
35129;DHT22;21301;43.626;10.580;2023-05-20T11:45:56;20.70;99.90
35129;DHT22;21301;43.626;10.580;2023-05-20T11:48:24;20.70;99.90
35129;DHT22;21301;43.626;10.580;2023-05-20T11:50:52;20.80;99.90
35129;DHT22;21301;43.626;10.580;2023-05-20T11:53:20;21.00;99.90
35129;DHT22;21301;43.626;10.580;2023-05-20T11:58:21;20.90;99.90
35129;DHT22;21301;43.626;10.580;2023-05-20T12:00:48;20.80;99.90
35129;DHT22;21301;43.626;10.580;2023-05-20T12:03:14;20.80;99.90
35129;DHT22;21301;43.626;10.580;2023-05-20T12:05:40;20.80;99.90
35129;DHT22;21301;43.626;10.580;2023-05-20T12:08:06;20.80;99.90
35129;DHT22;21301;43.626;10.580;2023-05-20T12:10:32;20.70;99.90
35129;DHT22;21301;43.626;10.580;2023-05-20T12:12:59;20.50;99.90
35129;DHT22;21301;43.626;10.580;2023-05-20T12:15:25;20.40;99.90
35129;DHT22;21301;43.626;10.580;2023-05-20T12:17:52;20.30;99.90
35129;DHT22;21301;43.626;10.580;2023-05-20T12:20:22;20.40;99.90
35129;DHT22;21301;43.626;10.580;2023-05-20T12:22:49;20.50;99.90
35129;DHT22;21301;43.626;10.580;2023-05-20T12:25:16;20.50;99.90
35129;DHT22;21301;43.626;10.580;2023-05-20T12:27:44;20.60;99.90
35129;DHT22;21301;43.626;10.580;2023-05-20T12:30:17;20.50;99.90
35129;DHT22;21301;43.626;10.580;2023-05-20T12:32:45;20.50;99.90
35129;DHT22;21301;43.626;10.580;2023-05-20T12:35:12;20.70;99.90
35129;DHT22;21301;43.626;10.580;2023-05-20T12:37:41;20.80;99.90
35129;DHT22;21301;43.626;10.580;2023-05-20T12:40:08;20.70;99.90
35129;DHT22;21301;43.626;10.580;2023-05-20T12:42:39;20.50;99.90
35129;DHT22;21301;43.626;10.580;2023-05-20T12:45:06;20.50;99.90
35129;DHT22;21301;43.626;10.580;2023-05-20T12:47:33;20.40;99.90
35129;DHT22;21301;43.626;10.580;2023-05-20T12:50:00;20.40;99.90
35129;DHT22;21301;43.626;10.580;2023-05-20T12:52:26;20.40;99.90
35129;DHT22;21301;43.626;10.580;2023-05-20T12:54:55;20.40;99.90
35129;DHT22;21301;43.626;10.580;2023-05-20T12:57:23;20.40;99.90
35129;DHT22;21301;43.626;10.580;2023-05-20T12:59:49;20.40;99.90
35129;DHT22;21301;43.626;10.580;2023-05-20T13:02:15;20.40;99.90
35129;DHT22;21301;43.626;10.580;2023-05-20T13:04:41;20.40;99.90
35129;DHT22;21301;43.626;10.580;2023-05-20T13:07:07;20.30;99.90
35129;DHT22;21301;43.626;10.580;2023-05-20T13:09:32;20.20;99.90
35129;DHT22;21301;43.626;10.580;2023-05-20T13:11:59;20.10;99.90
35129;DHT22;21301;43.626;10.580;2023-05-20T13:14:26;20.00;99.90
35129;DHT22;21301;43.626;10.580;2023-05-20T13:16:52;20.00;99.90
35129;DHT22;21301;43.626;10.580;2023-05-20T13:19:23;19.90;99.90
35129;DHT22;21301;43.626;10.580;2023-05-20T13:21:50;19.90;99.90
35129;DHT22;21301;43.626;10.580;2023-05-20T13:24:17;19.70;99.90
35129;DHT22;21301;43.626;10.580;2023-05-20T13:26:43;19.70;99.90
35129;DHT22;21301;43.626;10.580;2023-05-20T13:29:10;19.70;99.90
35129;DHT22;21301;43.626;10.580;2023-05-20T13:31:37;19.60;99.90
35129;DHT22;21301;43.626;10.580;2023-05-20T13:34:03;19.70;99.90
35129;DHT22;21301;43.626;10.580;2023-05-20T13:36:29;19.70;99.90
35129;DHT22;21301;43.626;10.580;2023-05-20T13:38:55;19.70;99.90
35129;DHT22;21301;43.626;10.580;2023-05-20T13:41:22;19.60;99.90
35129;DHT22;21301;43.626;10.580;2023-05-20T13:43:49;19.70;99.90
35129;DHT22;21301;43.626;10.580;2023-05-20T13:46:15;19.80;99.90
35129;DHT22;21301;43.626;10.580;2023-05-20T13:48:41;19.80;99.90
35129;DHT22;21301;43.626;10.580;2023-05-20T13:51:07;19.80;99.90
35129;DHT22;21301;43.626;10.580;2023-05-20T13:53:33;19.80;99.90
35129;DHT22;21301;43.626;10.580;2023-05-20T13:55:58;19.90;99.90
35129;DHT22;21301;43.626;10.580;2023-05-20T13:58:24;19.90;99.90
35129;DHT22;21301;43.626;10.580;2023-05-20T14:00:50;19.90;99.90
35129;DHT22;21301;43.626;10.580;2023-05-20T14:03:16;19.90;99.90
35129;DHT22;21301;43.626;10.580;2023-05-20T14:05:42;19.80;99.90
35129;DHT22;21301;43.626;10.580;2023-05-20T14:08:08;19.80;99.90
35129;DHT22;21301;43.626;10.580;2023-05-20T14:10:34;19.80;99.90
35129;DHT22;21301;43.626;10.580;2023-05-20T14:13:00;19.70;99.90
35129;DHT22;21301;43.626;10.580;2023-05-20T14:15:27;19.60;99.90
35129;DHT22;21301;43.626;10.580;2023-05-20T14:17:56;19.60;99.90
35129;DHT22;21301;43.626;10.580;2023-05-20T14:20:23;19.60;99.90
35129;DHT22;21301;43.626;10.580;2023-05-20T14:22:53;19.60;99.90
35129;DHT22;21301;43.626;10.580;2023-05-20T14:25:18;19.50;99.90
35129;DHT22;21301;43.626;10.580;2023-05-20T14:27:44;19.50;99.90
35129;DHT22;21301;43.626;10.580;2023-05-20T14:30:10;19.40;99.90
35129;DHT22;21301;43.626;10.580;2023-05-20T14:32:36;19.30;99.90
35129;DHT22;21301;43.626;10.580;2023-05-20T14:35:03;19.30;99.90
35129;DHT22;21301;43.626;10.580;2023-05-20T14:37:29;19.30;99.90
35129;DHT22;21301;43.626;10.580;2023-05-20T14:39:55;19.20;99.90
35129;DHT22;21301;43.626;10.580;2023-05-20T14:42:21;19.20;99.90
35129;DHT22;21301;43.626;10.580;2023-05-20T14:44:47;19.20;99.90
35129;DHT22;21301;43.626;10.580;2023-05-20T14:47:13;19.10;99.90
35129;DHT22;21301;43.626;10.580;2023-05-20T14:49:45;19.10;99.90
35129;DHT22;21301;43.626;10.580;2023-05-20T14:52:11;19.10;99.90
35129;DHT22;21301;43.626;10.580;2023-05-20T14:54:37;19.10;99.90
35129;DHT22;21301;43.626;10.580;2023-05-20T14:57:03;19.10;99.90
35129;DHT22;21301;43.626;10.580;2023-05-20T14:59:31;19.10;99.90
35129;DHT22;21301;43.626;10.580;2023-05-20T15:01:57;19.10;99.90
35129;DHT22;21301;43.626;10.580;2023-05-20T15:04:23;19.10;99.90
35129;DHT22;21301;43.626;10.580;2023-05-20T15:06:49;19.10;99.90
35129;DHT22;21301;43.626;10.580;2023-05-20T15:09:16;19.10;99.90
35129;DHT22;21301;43.626;10.580;2023-05-20T15:11:42;19.10;99.90
35129;DHT22;21301;43.626;10.580;2023-05-20T15:14:08;19.00;99.90
35129;DHT22;21301;43.626;10.580;2023-05-20T15:16:33;19.00;99.90
35129;DHT22;21301;43.626;10.580;2023-05-20T15:18:59;19.00;99.90
35129;DHT22;21301;43.626;10.580;2023-05-20T15:21:25;19.00;99.90
35129;DHT22;21301;43.626;10.580;2023-05-20T15:23:51;19.00;99.90
35129;DHT22;21301;43.626;10.580;2023-05-20T15:26:17;19.00;99.90
35129;DHT22;21301;43.626;10.580;2023-05-20T15:28:43;19.00;99.90
35129;DHT22;21301;43.626;10.580;2023-05-20T15:31:09;18.90;99.90
35129;DHT22;21301;43.626;10.580;2023-05-20T15:33:34;18.90;99.90